sensor_id;sensor_type;location;lat;lon;timestamp;pressure;altitude;pressure_sealevel;temperature;humidity
70468;BME280;57934;51.532;7.684;2022-07-29T00:01:16;100394.19;;;18.27;53.46
70468;BME280;57934;51.532;7.684;2022-07-29T00:03:42;100396.22;;;18.20;53.89
70468;BME280;57934;51.532;7.684;2022-07-29T00:06:09;100391.13;;;18.18;53.84
70468;BME280;57934;51.532;7.684;2022-07-29T00:08:35;100389.47;;;18.17;53.95
70468;BME280;57934;51.532;7.684;2022-07-29T00:11:01;100393.94;;;18.11;54.18
70468;BME280;57934;51.532;7.684;2022-07-29T00:13:27;100393.69;;;18.13;54.39
70468;BME280;57934;51.532;7.684;2022-07-29T00:15:53;100392.56;;;18.09;54.22
70468;BME280;57934;51.532;7.684;2022-07-29T00:18:19;100391.97;;;18.07;54.37
70468;BME280;57934;51.532;7.684;2022-07-29T00:20:45;100380.50;;;18.06;54.43
70468;BME280;57934;51.532;7.684;2022-07-29T00:23:11;100380.75;;;18.05;54.97
70468;BME280;57934;51.532;7.684;2022-07-29T00:25:37;100377.28;;;18.04;54.58
70468;BME280;57934;51.532;7.684;2022-07-29T00:28:04;100375.88;;;18.02;54.75
70468;BME280;57934;51.532;7.684;2022-07-29T00:30:30;100369.41;;;17.98;54.91
70468;BME280;57934;51.532;7.684;2022-07-29T00:32:56;100370.69;;;17.95;54.80
70468;BME280;57934;51.532;7.684;2022-07-29T00:35:22;100368.03;;;17.95;54.90
70468;BME280;57934;51.532;7.684;2022-07-29T00:38:07;100358.06;;;17.91;55.02
70468;BME280;57934;51.532;7.684;2022-07-29T00:40:33;100360.50;;;17.92;54.93
70468;BME280;57934;51.532;7.684;2022-07-29T00:42:59;100359.34;;;17.88;54.95
70468;BME280;57934;51.532;7.684;2022-07-29T00:45:25;100351.81;;;17.85;55.19
70468;BME280;57934;51.532;7.684;2022-07-29T00:47:51;100353.44;;;17.86;55.17
70468;BME280;57934;51.532;7.684;2022-07-29T00:50:17;100355.22;;;17.80;55.52
70468;BME280;57934;51.532;7.684;2022-07-29T00:52:43;100351.16;;;17.78;55.44
70468;BME280;57934;51.532;7.684;2022-07-29T00:55:15;100343.41;;;17.76;55.62
70468;BME280;57934;51.532;7.684;2022-07-29T00:57:42;100336.41;;;17.75;55.80
70468;BME280;57934;51.532;7.684;2022-07-29T01:00:12;100340.13;;;17.74;55.70
70468;BME280;57934;51.532;7.684;2022-07-29T01:02:38;100332.84;;;17.70;56.00
70468;BME280;57934;51.532;7.684;2022-07-29T01:05:05;100327.75;;;17.68;55.98
70468;BME280;57934;51.532;7.684;2022-07-29T01:07:36;100325.81;;;17.63;56.34
70468;BME280;57934;51.532;7.684;2022-07-29T01:10:04;100319.56;;;17.58;56.59
70468;BME280;57934;51.532;7.684;2022-07-29T01:12:32;100322.16;;;17.53;56.74
70468;BME280;57934;51.532;7.684;2022-07-29T01:15:05;100319.38;;;17.48;57.06
70468;BME280;57934;51.532;7.684;2022-07-29T01:20:09;100317.34;;;17.38;57.50
70468;BME280;57934;51.532;7.684;2022-07-29T01:25:48;100319.09;;;17.32;57.88
70468;BME280;57934;51.532;7.684;2022-07-29T01:31:04;100300.34;;;17.27;57.97
70468;BME280;57934;51.532;7.684;2022-07-29T01:33:33;100306.69;;;17.26;57.96
70468;BME280;57934;51.532;7.684;2022-07-29T01:36:47;100307.50;;;17.27;58.09
70468;BME280;57934;51.532;7.684;2022-07-29T01:39:19;100305.88;;;17.26;57.88
70468;BME280;57934;51.532;7.684;2022-07-29T01:42:51;100305.09;;;17.25;58.05
70468;BME280;57934;51.532;7.684;2022-07-29T01:50:23;100289.56;;;17.22;58.19
70468;BME280;57934;51.532;7.684;2022-07-29T01:52:55;100289.81;;;17.21;58.23
70468;BME280;57934;51.532;7.684;2022-07-29T01:55:25;100295.34;;;17.19;58.19
70468;BME280;57934;51.532;7.684;2022-07-29T01:57:53;100291.09;;;17.18;58.22
70468;BME280;57934;51.532;7.684;2022-07-29T02:00:21;100293.50;;;17.20;58.30
70468;BME280;57934;51.532;7.684;2022-07-29T02:02:48;100285.50;;;17.20;58.32
70468;BME280;57934;51.532;7.684;2022-07-29T02:05:17;100283.09;;;17.18;58.30
70468;BME280;57934;51.532;7.684;2022-07-29T02:07:46;100280.19;;;17.20;58.10
70468;BME280;57934;51.532;7.684;2022-07-29T02:10:14;100279.63;;;17.17;58.26
70468;BME280;57934;51.532;7.684;2022-07-29T02:12:43;100282.28;;;17.17;58.20
70468;BME280;57934;51.532;7.684;2022-07-29T02:15:11;100275.69;;;17.20;58.47
70468;BME280;57934;51.532;7.684;2022-07-29T02:17:46;100276.94;;;17.17;58.18
70468;BME280;57934;51.532;7.684;2022-07-29T02:20:15;100282.75;;;17.14;58.22
70468;BME280;57934;51.532;7.684;2022-07-29T02:22:43;100276.63;;;17.14;58.18
70468;BME280;57934;51.532;7.684;2022-07-29T02:25:10;100277.91;;;17.11;58.19
70468;BME280;57934;51.532;7.684;2022-07-29T02:27:37;100278.94;;;17.10;58.22
70468;BME280;57934;51.532;7.684;2022-07-29T02:30:06;100281.34;;;17.12;58.19
70468;BME280;57934;51.532;7.684;2022-07-29T02:32:35;100277.91;;;17.11;58.13
70468;BME280;57934;51.532;7.684;2022-07-29T02:35:04;100275.47;;;17.10;58.08
70468;BME280;57934;51.532;7.684;2022-07-29T02:37:31;100268.50;;;17.09;58.12
70468;BME280;57934;51.532;7.684;2022-07-29T02:39:59;100262.97;;;17.10;58.01
70468;BME280;57934;51.532;7.684;2022-07-29T02:42:26;100270.47;;;17.13;58.14
70468;BME280;57934;51.532;7.684;2022-07-29T02:44:54;100262.25;;;17.15;57.80
70468;BME280;57934;51.532;7.684;2022-07-29T02:47:30;100267.56;;;17.15;58.07
70468;BME280;57934;51.532;7.684;2022-07-29T02:50:04;100271.03;;;17.15;58.16
70468;BME280;57934;51.532;7.684;2022-07-29T02:55:19;100269.19;;;17.16;58.10
70468;BME280;57934;51.532;7.684;2022-07-29T02:58:01;100274.16;;;17.12;58.42
70468;BME280;57934;51.532;7.684;2022-07-29T03:00:30;100269.69;;;17.13;58.48
70468;BME280;57934;51.532;7.684;2022-07-29T03:02:59;100275.00;;;17.13;58.47
70468;BME280;57934;51.532;7.684;2022-07-29T03:05:27;100265.97;;;17.14;58.54
70468;BME280;57934;51.532;7.684;2022-07-29T03:07:55;100270.00;;;17.16;58.45
70468;BME280;57934;51.532;7.684;2022-07-29T03:10:25;100267.22;;;17.11;59.07
70468;BME280;57934;51.532;7.684;2022-07-29T03:12:51;100258.09;;;17.07;59.06
70468;BME280;57934;51.532;7.684;2022-07-29T03:15:18;100255.56;;;17.01;59.30
70468;BME280;57934;51.532;7.684;2022-07-29T03:17:45;100249.91;;;16.97;59.29
70468;BME280;57934;51.532;7.684;2022-07-29T03:20:12;100246.19;;;16.98;59.27
70468;BME280;57934;51.532;7.684;2022-07-29T03:22:43;100248.63;;;17.00;59.08
70468;BME280;57934;51.532;7.684;2022-07-29T03:25:11;100249.81;;;16.92;59.63
70468;BME280;57934;51.532;7.684;2022-07-29T03:27:37;100253.84;;;16.94;59.44
70468;BME280;57934;51.532;7.684;2022-07-29T03:30:04;100261.38;;;16.98;60.28
70468;BME280;57934;51.532;7.684;2022-07-29T03:32:30;100265.56;;;16.93;60.31
70468;BME280;57934;51.532;7.684;2022-07-29T03:34:56;100263.34;;;16.90;59.48
70468;BME280;57934;51.532;7.684;2022-07-29T03:37:22;100258.50;;;16.87;59.27
70468;BME280;57934;51.532;7.684;2022-07-29T03:39:49;100249.59;;;16.82;59.73
70468;BME280;57934;51.532;7.684;2022-07-29T03:42:19;100254.81;;;16.77;59.85
70468;BME280;57934;51.532;7.684;2022-07-29T03:44:47;100243.78;;;16.73;59.94
70468;BME280;57934;51.532;7.684;2022-07-29T03:47:16;100246.69;;;16.72;60.36
70468;BME280;57934;51.532;7.684;2022-07-29T03:49:46;100242.19;;;16.72;60.41
70468;BME280;57934;51.532;7.684;2022-07-29T03:52:14;100236.72;;;16.67;60.46
70468;BME280;57934;51.532;7.684;2022-07-29T03:54:40;100231.91;;;16.64;60.63
70468;BME280;57934;51.532;7.684;2022-07-29T03:57:07;100228.41;;;16.63;60.13
70468;BME280;57934;51.532;7.684;2022-07-29T03:59:36;100224.25;;;16.67;60.38
70468;BME280;57934;51.532;7.684;2022-07-29T04:02:09;100219.25;;;16.71;59.98
70468;BME280;57934;51.532;7.684;2022-07-29T04:04:36;100218.59;;;16.76;59.86
70468;BME280;57934;51.532;7.684;2022-07-29T04:07:03;100230.03;;;16.76;59.84
70468;BME280;57934;51.532;7.684;2022-07-29T04:09:29;100232.81;;;16.81;59.72
70468;BME280;57934;51.532;7.684;2022-07-29T04:11:56;100238.22;;;16.86;59.74
70468;BME280;57934;51.532;7.684;2022-07-29T04:14:22;100231.84;;;16.87;59.41
70468;BME280;57934;51.532;7.684;2022-07-29T04:16:48;100244.63;;;16.85;59.46
70468;BME280;57934;51.532;7.684;2022-07-29T04:19:14;100246.31;;;16.91;59.47
70468;BME280;57934;51.532;7.684;2022-07-29T04:21:41;100237.31;;;16.92;59.55
70468;BME280;57934;51.532;7.684;2022-07-29T04:24:07;100240.44;;;16.89;59.46
70468;BME280;57934;51.532;7.684;2022-07-29T04:26:34;100250.84;;;16.91;59.55
70468;BME280;57934;51.532;7.684;2022-07-29T04:29:01;100248.50;;;16.94;59.71
70468;BME280;57934;51.532;7.684;2022-07-29T04:31:27;100248.03;;;16.98;59.58
70468;BME280;57934;51.532;7.684;2022-07-29T04:33:53;100247.00;;;16.99;59.57
70468;BME280;57934;51.532;7.684;2022-07-29T04:36:19;100251.50;;;16.98;59.64
70468;BME280;57934;51.532;7.684;2022-07-29T04:38:45;100254.63;;;17.07;59.68
70468;BME280;57934;51.532;7.684;2022-07-29T04:41:11;100256.56;;;17.11;59.66
70468;BME280;57934;51.532;7.684;2022-07-29T04:43:37;100260.28;;;17.10;59.80
70468;BME280;57934;51.532;7.684;2022-07-29T04:46:05;100261.56;;;17.08;59.95
70468;BME280;57934;51.532;7.684;2022-07-29T04:48:32;100264.69;;;17.05;60.32
70468;BME280;57934;51.532;7.684;2022-07-29T04:50:58;100260.75;;;17.07;60.40
70468;BME280;57934;51.532;7.684;2022-07-29T04:53:24;100258.44;;;17.11;60.63
70468;BME280;57934;51.532;7.684;2022-07-29T04:55:50;100260.97;;;17.17;60.47
70468;BME280;57934;51.532;7.684;2022-07-29T04:58:17;100277.28;;;17.21;60.12
70468;BME280;57934;51.532;7.684;2022-07-29T05:00:43;100282.69;;;17.26;60.10
70468;BME280;57934;51.532;7.684;2022-07-29T05:03:09;100294.84;;;17.34;60.37
70468;BME280;57934;51.532;7.684;2022-07-29T05:05:35;100291.69;;;17.37;60.08
70468;BME280;57934;51.532;7.684;2022-07-29T05:08:02;100288.47;;;17.35;59.95
70468;BME280;57934;51.532;7.684;2022-07-29T05:10:28;100292.69;;;17.31;59.98
70468;BME280;57934;51.532;7.684;2022-07-29T05:12:55;100308.34;;;17.27;60.30
70468;BME280;57934;51.532;7.684;2022-07-29T05:15:21;100310.28;;;17.32;60.10
70468;BME280;57934;51.532;7.684;2022-07-29T05:17:47;100315.75;;;17.25;59.82
70468;BME280;57934;51.532;7.684;2022-07-29T05:20:19;100322.69;;;17.26;59.93
70468;BME280;57934;51.532;7.684;2022-07-29T05:22:58;100340.66;;;17.31;59.54
70468;BME280;57934;51.532;7.684;2022-07-29T05:25:27;100330.66;;;17.38;59.49
70468;BME280;57934;51.532;7.684;2022-07-29T05:27:53;100313.16;;;17.30;58.63
70468;BME280;57934;51.532;7.684;2022-07-29T05:30:19;100314.00;;;17.31;58.92
70468;BME280;57934;51.532;7.684;2022-07-29T05:32:46;100326.94;;;17.39;59.16
70468;BME280;57934;51.532;7.684;2022-07-29T05:35:13;100317.56;;;17.36;59.01
70468;BME280;57934;51.532;7.684;2022-07-29T05:37:40;100321.94;;;17.42;58.99
70468;BME280;57934;51.532;7.684;2022-07-29T05:40:07;100333.19;;;17.45;58.92
70468;BME280;57934;51.532;7.684;2022-07-29T05:42:34;100335.19;;;17.37;59.25
70468;BME280;57934;51.532;7.684;2022-07-29T05:45:01;100341.75;;;17.47;59.09
70468;BME280;57934;51.532;7.684;2022-07-29T05:47:27;100345.00;;;17.49;59.17
70468;BME280;57934;51.532;7.684;2022-07-29T05:49:53;100341.38;;;17.55;59.23
70468;BME280;57934;51.532;7.684;2022-07-29T05:52:20;100344.22;;;17.65;58.73
70468;BME280;57934;51.532;7.684;2022-07-29T05:54:47;100339.38;;;17.62;58.56
70468;BME280;57934;51.532;7.684;2022-07-29T05:57:22;100343.09;;;17.61;58.64
70468;BME280;57934;51.532;7.684;2022-07-29T05:59:49;100349.56;;;17.65;58.66
70468;BME280;57934;51.532;7.684;2022-07-29T06:02:16;100350.63;;;17.64;58.59
70468;BME280;57934;51.532;7.684;2022-07-29T06:04:42;100342.09;;;17.50;58.80
70468;BME280;57934;51.532;7.684;2022-07-29T06:07:10;100351.13;;;17.49;58.50
70468;BME280;57934;51.532;7.684;2022-07-29T06:09:37;100354.69;;;17.55;59.11
70468;BME280;57934;51.532;7.684;2022-07-29T06:12:03;100361.94;;;17.71;58.78
70468;BME280;57934;51.532;7.684;2022-07-29T06:14:29;100355.44;;;17.79;57.96
70468;BME280;57934;51.532;7.684;2022-07-29T06:16:55;100348.75;;;17.76;57.43
70468;BME280;57934;51.532;7.684;2022-07-29T06:19:21;100357.97;;;17.85;57.96
70468;BME280;57934;51.532;7.684;2022-07-29T06:21:48;100363.41;;;17.91;57.59
70468;BME280;57934;51.532;7.684;2022-07-29T06:24:14;100359.16;;;17.78;57.68
70468;BME280;57934;51.532;7.684;2022-07-29T06:26:41;100366.88;;;17.91;57.31
70468;BME280;57934;51.532;7.684;2022-07-29T06:29:08;100364.50;;;18.23;57.33
70468;BME280;57934;51.532;7.684;2022-07-29T06:31:34;100365.06;;;18.59;56.48
70468;BME280;57934;51.532;7.684;2022-07-29T06:34:00;100360.75;;;18.92;55.06
70468;BME280;57934;51.532;7.684;2022-07-29T06:36:26;100360.03;;;19.18;53.68
70468;BME280;57934;51.532;7.684;2022-07-29T06:38:52;100358.78;;;19.48;53.36
70468;BME280;57934;51.532;7.684;2022-07-29T06:41:18;100367.75;;;19.59;52.93
70468;BME280;57934;51.532;7.684;2022-07-29T06:43:45;100361.22;;;19.71;52.18
70468;BME280;57934;51.532;7.684;2022-07-29T06:46:14;100369.84;;;19.78;52.21
70468;BME280;57934;51.532;7.684;2022-07-29T06:48:41;100376.31;;;19.83;52.13
70468;BME280;57934;51.532;7.684;2022-07-29T06:51:11;100382.78;;;19.87;51.22
70468;BME280;57934;51.532;7.684;2022-07-29T06:53:37;100372.59;;;19.84;50.97
70468;BME280;57934;51.532;7.684;2022-07-29T06:56:04;100358.22;;;19.68;51.83
70468;BME280;57934;51.532;7.684;2022-07-29T06:58:31;100364.66;;;19.67;52.00
70468;BME280;57934;51.532;7.684;2022-07-29T07:00:58;100370.03;;;19.72;52.15
70468;BME280;57934;51.532;7.684;2022-07-29T07:03:26;100370.50;;;19.64;52.84
70468;BME280;57934;51.532;7.684;2022-07-29T07:05:53;100369.09;;;19.61;52.56
70468;BME280;57934;51.532;7.684;2022-07-29T07:08:20;100371.44;;;19.79;52.10
70468;BME280;57934;51.532;7.684;2022-07-29T07:10:46;100376.50;;;20.03;52.04
70468;BME280;57934;51.532;7.684;2022-07-29T07:13:12;100376.28;;;20.37;51.18
70468;BME280;57934;51.532;7.684;2022-07-29T07:15:38;100380.91;;;20.84;49.92
70468;BME280;57934;51.532;7.684;2022-07-29T07:18:05;100375.66;;;20.99;49.56
70468;BME280;57934;51.532;7.684;2022-07-29T07:20:33;100369.00;;;21.07;49.42
70468;BME280;57934;51.532;7.684;2022-07-29T07:22:59;100368.78;;;21.18;48.28
70468;BME280;57934;51.532;7.684;2022-07-29T07:25:25;100364.84;;;21.36;48.25
70468;BME280;57934;51.532;7.684;2022-07-29T07:27:51;100378.09;;;21.68;46.44
70468;BME280;57934;51.532;7.684;2022-07-29T07:30:17;100370.38;;;21.92;45.98
70468;BME280;57934;51.532;7.684;2022-07-29T07:32:43;100369.06;;;22.31;44.98
70468;BME280;57934;51.532;7.684;2022-07-29T07:35:10;100368.50;;;22.80;44.49
70468;BME280;57934;51.532;7.684;2022-07-29T07:37:36;100360.44;;;22.75;43.75
70468;BME280;57934;51.532;7.684;2022-07-29T07:40:04;100361.94;;;23.22;43.17
70468;BME280;57934;51.532;7.684;2022-07-29T07:42:30;100361.16;;;23.66;42.05
70468;BME280;57934;51.532;7.684;2022-07-29T07:44:56;100364.66;;;23.76;42.33
70468;BME280;57934;51.532;7.684;2022-07-29T07:47:22;100361.72;;;24.07;41.32
70468;BME280;57934;51.532;7.684;2022-07-29T07:49:50;100357.84;;;24.23;40.66
70468;BME280;57934;51.532;7.684;2022-07-29T07:52:18;100351.47;;;24.72;40.59
70468;BME280;57934;51.532;7.684;2022-07-29T07:54:44;100352.00;;;25.22;39.19
70468;BME280;57934;51.532;7.684;2022-07-29T07:57:11;100347.53;;;25.56;37.79
70468;BME280;57934;51.532;7.684;2022-07-29T07:59:38;100354.16;;;25.44;38.34
70468;BME280;57934;51.532;7.684;2022-07-29T08:02:05;100352.06;;;25.41;37.75
70468;BME280;57934;51.532;7.684;2022-07-29T08:04:31;100363.22;;;25.11;38.50
70468;BME280;57934;51.532;7.684;2022-07-29T08:06:58;100358.41;;;25.03;38.78
70468;BME280;57934;51.532;7.684;2022-07-29T08:09:26;100356.47;;;24.84;38.65
70468;BME280;57934;51.532;7.684;2022-07-29T08:11:52;100355.72;;;24.79;39.69
70468;BME280;57934;51.532;7.684;2022-07-29T08:14:19;100353.16;;;24.92;39.37
70468;BME280;57934;51.532;7.684;2022-07-29T08:16:45;100355.22;;;25.00;38.81
70468;BME280;57934;51.532;7.684;2022-07-29T08:19:11;100357.38;;;24.98;38.79
70468;BME280;57934;51.532;7.684;2022-07-29T08:21:38;100362.88;;;24.88;39.77
70468;BME280;57934;51.532;7.684;2022-07-29T08:24:04;100367.38;;;24.74;39.39
70468;BME280;57934;51.532;7.684;2022-07-29T08:26:49;100358.91;;;24.57;39.73
70468;BME280;57934;51.532;7.684;2022-07-29T08:29:15;100362.44;;;24.81;39.75
70468;BME280;57934;51.532;7.684;2022-07-29T08:31:42;100354.81;;;25.36;38.75
70468;BME280;57934;51.532;7.684;2022-07-29T08:34:08;100363.41;;;25.81;38.06
70468;BME280;57934;51.532;7.684;2022-07-29T08:36:35;100363.72;;;26.45;36.16
70468;BME280;57934;51.532;7.684;2022-07-29T08:39:02;100364.25;;;27.94;34.17
70468;BME280;57934;51.532;7.684;2022-07-29T08:41:28;100368.59;;;27.95;33.45
70468;BME280;57934;51.532;7.684;2022-07-29T08:43:54;100367.94;;;27.75;34.18
70468;BME280;57934;51.532;7.684;2022-07-29T08:46:21;100361.28;;;27.45;34.40
70468;BME280;57934;51.532;7.684;2022-07-29T08:48:48;100366.72;;;27.68;33.61
70468;BME280;57934;51.532;7.684;2022-07-29T08:51:16;100368.44;;;27.77;33.77
70468;BME280;57934;51.532;7.684;2022-07-29T08:53:44;100365.59;;;27.46;34.38
70468;BME280;57934;51.532;7.684;2022-07-29T08:56:12;100355.47;;;27.10;34.90
70468;BME280;57934;51.532;7.684;2022-07-29T08:58:39;100356.31;;;28.20;33.64
70468;BME280;57934;51.532;7.684;2022-07-29T09:01:07;100350.59;;;30.28;30.52
70468;BME280;57934;51.532;7.684;2022-07-29T09:03:36;100346.56;;;32.03;27.33
70468;BME280;57934;51.532;7.684;2022-07-29T09:06:03;100346.91;;;32.47;26.39
70468;BME280;57934;51.532;7.684;2022-07-29T09:08:30;100351.94;;;33.06;26.42
70468;BME280;57934;51.532;7.684;2022-07-29T09:10:57;100344.59;;;33.47;24.98
70468;BME280;57934;51.532;7.684;2022-07-29T09:13:24;100336.50;;;34.66;24.23
70468;BME280;57934;51.532;7.684;2022-07-29T09:15:50;100339.44;;;35.09;23.33
70468;BME280;57934;51.532;7.684;2022-07-29T09:18:39;100334.13;;;35.71;22.66
70468;BME280;57934;51.532;7.684;2022-07-29T09:21:07;100333.16;;;36.25;21.90
70468;BME280;57934;51.532;7.684;2022-07-29T09:24:12;100332.94;;;36.57;21.36
70468;BME280;57934;51.532;7.684;2022-07-29T09:26:43;100332.56;;;34.20;23.42
70468;BME280;57934;51.532;7.684;2022-07-29T09:29:11;100341.81;;;33.19;25.87
70468;BME280;57934;51.532;7.684;2022-07-29T09:31:40;100333.06;;;32.19;26.84
70468;BME280;57934;51.532;7.684;2022-07-29T09:34:08;100337.59;;;31.81;26.85
70468;BME280;57934;51.532;7.684;2022-07-29T09:36:42;100338.00;;;30.61;28.74
70468;BME280;57934;51.532;7.684;2022-07-29T09:39:08;100338.03;;;30.53;28.43
70468;BME280;57934;51.532;7.684;2022-07-29T09:42:05;100337.13;;;30.40;29.27
70468;BME280;57934;51.532;7.684;2022-07-29T09:44:48;100339.41;;;30.76;29.17
70468;BME280;57934;51.532;7.684;2022-07-29T09:47:18;100348.50;;;30.80;28.80
70468;BME280;57934;51.532;7.684;2022-07-29T09:49:58;100344.72;;;29.91;30.65
70468;BME280;57934;51.532;7.684;2022-07-29T09:52:28;100341.78;;;29.27;31.83
70468;BME280;57934;51.532;7.684;2022-07-29T09:55:09;100350.50;;;28.66;32.25
70468;BME280;57934;51.532;7.684;2022-07-29T09:57:35;100348.00;;;28.16;33.42
70468;BME280;57934;51.532;7.684;2022-07-29T10:00:13;100345.31;;;27.80;33.42
70468;BME280;57934;51.532;7.684;2022-07-29T10:02:42;100342.56;;;27.94;34.07
70468;BME280;57934;51.532;7.684;2022-07-29T10:05:21;100342.16;;;28.54;33.15
70468;BME280;57934;51.532;7.684;2022-07-29T10:07:53;100332.03;;;29.34;31.39
70468;BME280;57934;51.532;7.684;2022-07-29T10:10:27;100337.69;;;28.89;32.43
70468;BME280;57934;51.532;7.684;2022-07-29T10:12:56;100328.31;;;29.04;32.37
70468;BME280;57934;51.532;7.684;2022-07-29T10:15:24;100326.94;;;30.19;30.48
70468;BME280;57934;51.532;7.684;2022-07-29T10:17:54;100332.19;;;31.31;29.30
70468;BME280;57934;51.532;7.684;2022-07-29T10:20:22;100328.50;;;31.56;28.37
70468;BME280;57934;51.532;7.684;2022-07-29T10:22:49;100327.03;;;30.40;29.49
70468;BME280;57934;51.532;7.684;2022-07-29T10:25:16;100327.09;;;29.54;31.00
70468;BME280;57934;51.532;7.684;2022-07-29T10:27:46;100333.53;;;27.98;33.25
70468;BME280;57934;51.532;7.684;2022-07-29T10:30:16;100319.59;;;27.55;34.78
70468;BME280;57934;51.532;7.684;2022-07-29T10:38:27;100322.66;;;26.57;36.47
70468;BME280;57934;51.532;7.684;2022-07-29T10:44:09;100327.78;;;25.55;39.39
70468;BME280;57934;51.532;7.684;2022-07-29T10:46:40;100317.78;;;25.18;39.56
70468;BME280;57934;51.532;7.684;2022-07-29T10:49:16;100325.41;;;24.87;40.76
70468;BME280;57934;51.532;7.684;2022-07-29T10:51:55;100316.63;;;24.76;41.17
70468;BME280;57934;51.532;7.684;2022-07-29T10:54:42;100324.53;;;24.67;41.53
70468;BME280;57934;51.532;7.684;2022-07-29T10:57:29;100326.44;;;24.38;43.53
70468;BME280;57934;51.532;7.684;2022-07-29T11:02:42;100334.75;;;23.78;45.41
70468;BME280;57934;51.532;7.684;2022-07-29T11:05:10;100340.78;;;23.54;46.34
70468;BME280;57934;51.532;7.684;2022-07-29T11:07:39;100330.69;;;23.26;47.28
70468;BME280;57934;51.532;7.684;2022-07-29T11:15:13;100336.19;;;22.90;48.88
70468;BME280;57934;51.532;7.684;2022-07-29T11:23:26;100348.56;;;22.81;50.40
70468;BME280;57934;51.532;7.684;2022-07-29T11:28:51;100350.47;;;22.85;50.58
70468;BME280;57934;51.532;7.684;2022-07-29T11:34:25;100351.28;;;22.76;50.33
70468;BME280;57934;51.532;7.684;2022-07-29T11:37:23;100350.00;;;22.37;51.13
70468;BME280;57934;51.532;7.684;2022-07-29T11:45:02;100349.97;;;22.68;50.99
70468;BME280;57934;51.532;7.684;2022-07-29T11:47:32;100350.44;;;22.91;49.89
70468;BME280;57934;51.532;7.684;2022-07-29T11:50:01;100349.34;;;23.02;49.27
70468;BME280;57934;51.532;7.684;2022-07-29T11:52:38;100345.34;;;22.94;49.16
70468;BME280;57934;51.532;7.684;2022-07-29T11:55:16;100346.13;;;23.10;49.15
70468;BME280;57934;51.532;7.684;2022-07-29T11:57:59;100348.34;;;23.52;48.30
70468;BME280;57934;51.532;7.684;2022-07-29T12:00:30;100349.00;;;23.78;47.54
70468;BME280;57934;51.532;7.684;2022-07-29T12:02:59;100346.38;;;24.08;46.94
70468;BME280;57934;51.532;7.684;2022-07-29T12:05:33;100346.84;;;24.49;46.45
70468;BME280;57934;51.532;7.684;2022-07-29T12:08:22;100348.66;;;24.83;45.96
70468;BME280;57934;51.532;7.684;2022-07-29T12:10:53;100349.28;;;24.98;45.77
70468;BME280;57934;51.532;7.684;2022-07-29T12:13:21;100348.44;;;24.79;45.52
70468;BME280;57934;51.532;7.684;2022-07-29T12:15:57;100353.47;;;24.33;45.70
70468;BME280;57934;51.532;7.684;2022-07-29T12:18:24;100351.31;;;24.29;46.60
70468;BME280;57934;51.532;7.684;2022-07-29T12:21:01;100343.72;;;24.02;46.80
70468;BME280;57934;51.532;7.684;2022-07-29T12:23:32;100348.81;;;23.70;47.53
70468;BME280;57934;51.532;7.684;2022-07-29T12:25:58;100350.34;;;23.26;49.35
70468;BME280;57934;51.532;7.684;2022-07-29T12:28:25;100344.69;;;23.28;49.32
70468;BME280;57934;51.532;7.684;2022-07-29T12:30:52;100344.78;;;23.02;49.93
70468;BME280;57934;51.532;7.684;2022-07-29T12:33:31;100338.88;;;23.00;49.35
70468;BME280;57934;51.532;7.684;2022-07-29T12:36:00;100342.94;;;22.93;50.08
70468;BME280;57934;51.532;7.684;2022-07-29T12:38:28;100344.00;;;22.86;50.36
70468;BME280;57934;51.532;7.684;2022-07-29T12:41:02;100345.09;;;22.85;50.66
70468;BME280;57934;51.532;7.684;2022-07-29T12:43:32;100349.09;;;22.88;49.95
70468;BME280;57934;51.532;7.684;2022-07-29T12:46:11;100342.19;;;22.61;50.81
70468;BME280;57934;51.532;7.684;2022-07-29T12:48:39;100340.56;;;22.66;50.88
70468;BME280;57934;51.532;7.684;2022-07-29T12:51:07;100337.63;;;22.47;50.87
70468;BME280;57934;51.532;7.684;2022-07-29T12:53:35;100340.88;;;22.44;51.14
70468;BME280;57934;51.532;7.684;2022-07-29T12:56:02;100337.59;;;22.57;51.08
70468;BME280;57934;51.532;7.684;2022-07-29T12:58:34;100338.16;;;22.64;50.84
70468;BME280;57934;51.532;7.684;2022-07-29T13:01:10;100336.19;;;22.90;49.86
70468;BME280;57934;51.532;7.684;2022-07-29T13:03:54;100339.66;;;23.11;49.36
70468;BME280;57934;51.532;7.684;2022-07-29T13:06:40;100337.34;;;23.44;48.64
70468;BME280;57934;51.532;7.684;2022-07-29T13:09:08;100338.97;;;23.40;48.03
70468;BME280;57934;51.532;7.684;2022-07-29T13:11:40;100335.78;;;23.32;46.97
70468;BME280;57934;51.532;7.684;2022-07-29T13:14:07;100336.66;;;23.13;48.25
70468;BME280;57934;51.532;7.684;2022-07-29T13:16:36;100341.91;;;22.63;49.24
70468;BME280;57934;51.532;7.684;2022-07-29T13:19:12;100336.28;;;22.44;50.42
70468;BME280;57934;51.532;7.684;2022-07-29T13:21:39;100340.06;;;22.33;50.98
70468;BME280;57934;51.532;7.684;2022-07-29T13:24:06;100346.75;;;22.05;53.23
70468;BME280;57934;51.532;7.684;2022-07-29T13:26:32;100331.94;;;21.82;55.00
70468;BME280;57934;51.532;7.684;2022-07-29T13:28:58;100342.69;;;21.77;59.17
70468;BME280;57934;51.532;7.684;2022-07-29T13:31:25;100334.34;;;21.63;59.71
70468;BME280;57934;51.532;7.684;2022-07-29T13:33:51;100339.44;;;21.59;61.14
70468;BME280;57934;51.532;7.684;2022-07-29T13:36:17;100342.16;;;21.70;61.70
70468;BME280;57934;51.532;7.684;2022-07-29T13:38:43;100348.59;;;21.74;60.64
70468;BME280;57934;51.532;7.684;2022-07-29T13:41:09;100345.38;;;21.77;59.37
70468;BME280;57934;51.532;7.684;2022-07-29T13:43:35;100341.59;;;21.62;58.38
70468;BME280;57934;51.532;7.684;2022-07-29T13:46:01;100330.56;;;21.54;59.03
70468;BME280;57934;51.532;7.684;2022-07-29T13:48:27;100336.69;;;21.39;59.20
70468;BME280;57934;51.532;7.684;2022-07-29T13:50:56;100342.59;;;21.41;60.46